Logo AVAMET
Benvolgut visitant, si us plau, ingressa Recuperar contrasenya
AVAMET paisatges

les Alqueries

Dades diàries. Acumulats / Últims 30 dies disponibles

Data Temperatura (°C) Humitat rel. (%) Pressió rel. (hPa) Vent (km/h) Precipitació
Mínima Mitjana Màxima Amplitud
tèrmica
Mínima Mitjana Màxima Mínima Mitjana Màxima Predom. Mitjana Ràfega
màxima
Total
(mm)
Índex-n
Mínima Mitjana Màxima Mínima Mitjana Màxima n
0 a 1
P0 max
mm 5'
Dades mensuals acumulades fins l'últim dia disponible
03/2020 5,3 10,0 13,8 13,9 11,3 17,9 25,2 19,9 27 71 97 996 1.017 1.029   7,7 88,5 52,0
Dades anuals acumulades fins l'últim dia disponible
2020 2,2 8,4 13,8 12,6 10,7 17,6 26,1 23,9 21 73 97 996 1.022 1.034   6,3 88,5 168,0
Últims 30 dies disponibles
29-03-2020 8,8     14,5     20,6 11,8 41 63 82 1.012 1.015 1.019 NW 8,5 30,6 0,0
28-03-2020 6,1     11,6     16,9 10,8 44 66 85 1.017 1.018 1.019 NW 7,4 27,4 0,0
27-03-2020 6,5     9,9     13,9 7,4 54 73 86 1.012 1.014 1.017 NW 6,9 24,1 0,0
26-03-2020 5,3     9,8     16,1 10,8 39 74 93 1.007 1.010 1.013 NW 7,4 43,5 0,0
25-03-2020 7,6     9,7     11,3 3,7 72 85 92 1.014 1.017 1.019 NW 5,1 20,9 3,8
24-03-2020 10,0     12,9     14,2 4,2 73 83 92 1.017 1.018 1.019 NE 19,8 54,7 3,2
23-03-2020 11,8     13,3     15,9 4,1 81 89 95 1.015 1.017 1.018 NW 8,9 33,8 12,2 0,42 3,20
22-03-2020 10,8     12,9     15,4 4,6 71 86 95 1.011 1.013 1.015 NW 5,3 20,9 3,2 0,20
21-03-2020 10,4     12,6     14,9 4,5 70 82 91 1.012 1.014 1.018 NW 5,3 17,7 0,0
20-03-2020 10,9     12,9     15,8 4,9 71 84 92 1.017 1.019 1.021 NW 7,6 27,4 0,0
19-03-2020 8,8     12,5     16,3 7,5 72 85 93 1.021 1.023 1.026 NW 5,1 24,1 0,0
18-03-2020 10,6     13,0     16,0 5,4 71 85 93 1.025 1.027 1.029 NW 6,9 29,0 0,0
17-03-2020 11,9     13,5     14,8 2,9 87 94 97 1.019 1.024 1.029 NE 8,7 45,1 20,2 0,34 1,80
16-03-2020 12,6     13,5     15,1 2,5 88 93 96 1.011 1.014 1.019 NE 5,1 27,4 9,2
15-03-2020 9,6     13,4     17,2 7,6 68 84 92 1.015 1.018 1.020 NW 5,1 29,0 0,0
14-03-2020 9,6     13,7     17,7 8,1 55 79 91 1.018 1.020 1.021 NW 3,4 19,3 0,0
13-03-2020 9,8     14,1     18,0 8,2 65 80 96 1.018 1.020 1.021 NE 5,3 33,8 0,2
12-03-2020 10,1     14,0     19,3 9,2 65 83 93 1.017 1.020 1.022 NE 2,7 14,5 0,0
11-03-2020 10,1     15,3     20,9 10,8 46 70 87 1.022 1.022 1.024 NW 3,4 14,5 0,0
10-03-2020 9,0     13,4     16,0 7,0 49 69 87 1.022 1.024 1.026 SSE 4,3 22,5 0,0
09-03-2020 10,9     15,3     19,1 8,2 33 54 72 1.020 1.021 1.023 SSE 4,8 25,7 0,0
08-03-2020 8,5     13,7     19,1 10,6 38 62 79 1.020 1.022 1.024 NW 5,6 25,7 0,0
07-03-2020 8,6     13,3     18,7 10,1 35 48 73 1.020 1.021 1.024 WNW 5,6 29,0 0,0
06-03-2020 11,5     14,4     18,3 6,8 27 42 56 1.011 1.013 1.020 WNW 12,7 61,2 0,0
05-03-2020 12,8     18,6     24,4 11,6 28 48 70 1.005 1.009 1.014 WNW 10,1 49,9 0,0
04-03-2020 12,7     18,1     25,2 12,5 43 62 81 1.013 1.015 1.017 NW 6,0 32,2 0,0
03-03-2020 8,9     16,2     23,3 14,4 31 43 60 1.007 1.012 1.016 WNW 11,9 66,0 0,0
02-03-2020 11,3     16,9     20,8 9,5 28 47 67 996 1.005 1.015 WNW 24,9 88,5 0,0
01-03-2020 13,8     18,7     23,6 9,8 32 48 62 1.008 1.011 1.013 SW 10,1 38,6 0,0
29-02-2020 8,3     16,0     23,7 15,4 31 60 86 1.009 1.012 1.018 NW 10,1 51,5 0,0
Últims 13 mesos disponibles
02/2020 5,7 9,0 12,7 13,6 14,3 19,0 26,1 20,4 46 73 88 1.016 1.025 1.032 NW 4,5 35,4 0,0
01/2020 2,2 6,4 11,9 10,5 10,7 15,8 21,8 19,6 61 76 94 1.017 1.025 1.032 NW 6,5 69,2 116,0
12/2019 4,3 9,4 17,1 13,3 12,5 17,8 25,6 21,3 45 71 93 1.000 1.018 1.032 NW 6,6 74,0 108,2
11/2019 6,1 11,2 18,3 15,4 15,3 20,0 28,4 22,3 40 55 79 996 1.009 1.017 WNW 8,1 57,9 2,4
10/2019 9,7 15,5 19,4 19,5 15,6 24,1 29,1 19,4 47 72 87 1.006 1.016 1.021 NW 5,8 43,5 16,8
09/2019 14,9 19,5 22,4 23,1 21,2 27,0 32,3 17,4 51 73 83 1.009 1.017 1.025 NW 7,1 56,3 67,6
08/2019 16,7 21,3 24,4 25,5 26,3 29,4 33,3 16,6 54 73 85 1.010 1.016 1.020 NW 6,2 70,8 46,4
07/2019 20,3 21,6 23,7 26,0 27,3 29,9 33,6 13,3 49 66 80 1.005 1.014 1.021 NW 6,4 35,4 14,4
06/2019 11,7 17,1 21,7 21,9 20,9 26,1 35,7 24,0 41 65 80 1.007 1.015 1.022 NW 6,7 64,4 0,0
05/2019 8,9 13,5 16,7 17,8 18,1 22,0 28,1 19,2 53 68 87 1.004 1.015 1.024 NW 6,7 54,7 15,2
04/2019 6,2 11,1 14,3 15,0 15,7 19,3 26,7 20,5 46 65 90 998 1.012 1.025 NW 9,1 67,6 33,6
03/2019 6,4 8,8 12,1 13,8 12,7 18,8 24,8 18,4 44 60 85 1.009 1.022 1.029 NW 6,4 45,1 15,4
02/2019 0,9 6,4 11,4 11,4 13,4 17,1 23,6 22,7 27 66 80 992 1.024 1.034 NW 6,1 77,2 0,0
Tots els anys disponibles
2019 0,9 13,4 24,4 17,8 12,5 22,3 35,7 34,8 27 66 93 992 1.016 1.034 NW 6,9 77,2 321,3
2018 1,8 13,6 25,9 17,8 7,9 22,2 34,5 32,7 42 74 94 999 1.018 1.030 NW 6,2 75,6 587,8
2017 0,9 13,2 24,9 17,5 9,1 21,9 34,9 34,0 57 58 59 1.016 1.018 1.020 6,6 79,0 362,7
2016 3,1 13,5 24,2 17,5 10,8 21,5 32,0 28,9 57 62 65 1.014 1.018 1.026 90,0 442,8
2015 0,6 13,4 17,9 17,6 18,3 21,7 39,9 39,3 56 67 78 1.016 1.019 1.030 85,0 407,8
2014 1,8 9,6 11,4 13,5 19,3 17,4 21,2 19,4 64 72 80 999 1.011 1.022 79,0 294,8
2013 341,6
Temperatura (°C)
Humitat relativa (%)
Velocitat del vent i ràfega màxima (km/h)
Direcció del vent (°)
Pressió (hPa)
Precipitació (mm)
Nota sobre les dades: s'avisa a l'usuari de la provisionalitat i no oficialitat d'aquestes dades
Logo AVAMET blanc
Web allotjada a Sollutia
Llicència de Creative CommonsLa web d'AVAMET i els seus continguts estan subjectes a una llicència de
Reconeixement - No Comercial - Compartir igual
Últimes estacions:  Altea - Com. Regants (Soci), Almoines (Inforatge), Beniparrell (Inforatge), Albal (Inforatge), Almussafes - Parc Industrial (Inforatge), La Vilavella (Soci), la Serratella (soci) - - -